createdAt,value
2018-12-14T00:02:46.422Z,103.54
2018-12-14T00:05:49.997Z,103.72
2018-12-14T00:08:53.507Z,103.28
2018-12-14T00:11:57.022Z,103.22
2018-12-14T00:15:00.551Z,102.96
2018-12-14T00:18:04.038Z,103.06
2018-12-14T00:21:08.145Z,102.95
2018-12-14T00:24:11.630Z,103.05
2018-12-14T00:27:15.320Z,103.30
2018-12-14T00:30:18.847Z,103.04
2018-12-14T00:33:22.365Z,103.00
2018-12-14T00:36:26.040Z,103.02
2018-12-14T00:39:29.643Z,102.92
2018-12-14T00:42:33.105Z,102.83
2018-12-14T00:45:36.567Z,103.03
2018-12-14T00:48:40.127Z,103.30
2018-12-14T00:51:43.638Z,103.18
2018-12-14T00:54:47.105Z,102.72
2018-12-14T00:57:50.650Z,103.51
2018-12-14T01:00:54.165Z,103.45
2018-12-14T01:03:57.650Z,103.56
2018-12-14T01:07:01.216Z,104.14
2018-12-14T01:10:05.222Z,104.58
2018-12-14T01:13:08.704Z,104.60
2018-12-14T01:16:12.229Z,104.76
2018-12-14T01:19:15.801Z,104.88
2018-12-14T01:22:19.279Z,105.06
2018-12-14T01:25:22.805Z,105.20
2018-12-14T01:28:26.282Z,105.03
2018-12-14T01:31:29.754Z,104.93
2018-12-14T01:34:33.250Z,104.84
2018-12-14T01:37:36.726Z,104.65
2018-12-14T01:40:40.297Z,104.76
2018-12-14T01:43:43.771Z,104.43
2018-12-14T01:46:47.286Z,104.26
2018-12-14T01:49:50.777Z,103.81
2018-12-14T01:52:54.316Z,103.61
2018-12-14T01:55:57.895Z,103.12
2018-12-14T01:59:01.437Z,103.56
2018-12-14T02:02:04.956Z,103.23
2018-12-14T02:05:08.540Z,103.04
2018-12-14T02:08:12.085Z,102.86
2018-12-14T02:11:15.600Z,103.48
2018-12-14T02:14:19.066Z,103.19
2018-12-14T02:17:22.644Z,103.17
2018-12-14T02:20:26.154Z,103.44
2018-12-14T02:23:29.660Z,103.30
2018-12-14T02:26:33.146Z,103.56
2018-12-14T02:29:36.754Z,102.62
2018-12-14T02:32:40.381Z,102.01
2018-12-14T02:35:43.940Z,102.64
2018-12-14T02:38:47.596Z,102.31
2018-12-14T02:41:51.093Z,102.63
2018-12-14T02:44:54.540Z,102.22
2018-12-14T02:47:58.040Z,102.58
2018-12-14T02:51:01.554Z,102.41
2018-12-14T02:54:05.248Z,102.57
2018-12-14T02:57:08.866Z,102.94
2018-12-14T03:00:12.552Z,103.17
2018-12-14T03:03:16.071Z,103.15
2018-12-14T03:06:19.699Z,102.81
2018-12-14T03:09:23.477Z,102.49
2018-12-14T03:12:26.995Z,102.75
2018-12-14T03:15:30.590Z,103.43
2018-12-14T03:18:34.116Z,103.17
2018-12-14T03:27:14.792Z,103.49
2018-12-14T03:30:18.302Z,103.93
2018-12-14T03:33:21.828Z,104.49
2018-12-14T03:36:25.433Z,105.03
2018-12-14T03:39:29.143Z,105.26
2018-12-14T03:42:34.603Z,105.26
2018-12-14T03:51:11.964Z,104.99
2018-12-14T03:54:15.477Z,105.13
2018-12-14T03:57:18.973Z,105.13
2018-12-14T04:00:22.646Z,105.15
2018-12-14T04:03:26.117Z,104.92
2018-12-14T04:06:29.878Z,104.90
2018-12-14T04:09:33.357Z,105.42
2018-12-14T04:12:41.510Z,105.43
2018-12-14T04:15:42.437Z,105.55
2018-12-14T04:18:46.039Z,105.53
2018-12-14T04:21:49.527Z,105.58
2018-12-14T04:24:54.506Z,105.63
2018-12-14T04:27:58.236Z,105.45
2018-12-14T04:31:01.855Z,105.64
2018-12-14T04:34:05.388Z,105.82
2018-12-14T04:37:09.036Z,106.32
2018-12-14T04:40:12.596Z,106.87
2018-12-14T04:43:16.077Z,107.05
2018-12-14T04:46:20.353Z,107.15
2018-12-14T04:49:24.101Z,107.35
2018-12-14T04:52:27.633Z,107.32
2018-12-14T04:55:31.167Z,107.15
2018-12-14T04:58:34.707Z,106.89
2018-12-14T05:01:39.765Z,106.89
2018-12-14T05:04:43.298Z,106.57
2018-12-14T05:07:46.763Z,106.04
2018-12-14T05:10:50.298Z,105.48
2018-12-14T05:13:53.862Z,104.81
2018-12-14T05:16:57.578Z,104.87
2018-12-14T05:20:01.208Z,104.29
2018-12-14T05:23:04.683Z,104.26
2018-12-14T05:26:09.077Z,104.29
2018-12-14T05:29:12.568Z,104.23
2018-12-14T05:32:16.047Z,103.99
2018-12-14T05:35:19.549Z,103.97
2018-12-14T05:38:23.099Z,103.88
2018-12-14T05:41:26.757Z,103.38
2018-12-14T05:44:30.267Z,103.08
2018-12-14T05:47:33.816Z,102.75
2018-12-14T05:50:37.373Z,102.84
2018-12-14T05:53:40.975Z,102.34
2018-12-14T05:56:44.579Z,101.97
2018-12-14T05:59:48.067Z,102.08
2018-12-14T06:02:51.534Z,102.30
2018-12-14T06:05:55.070Z,101.80
2018-12-14T06:08:58.782Z,101.14
2018-12-14T06:12:02.998Z,100.66
2018-12-14T06:15:06.876Z,100.82
2018-12-14T06:18:10.509Z,100.78
2018-12-14T06:21:15.361Z,100.71
2018-12-14T06:24:18.802Z,100.69
2018-12-14T06:27:22.406Z,100.26
2018-12-14T06:30:25.884Z,100.40
2018-12-14T06:33:29.340Z,100.60
2018-12-14T06:36:32.893Z,101.29
2018-12-14T06:39:36.541Z,101.49
2018-12-14T06:42:40.354Z,101.08
2018-12-14T06:45:43.835Z,101.06
2018-12-14T06:48:47.519Z,101.20
2018-12-14T06:51:51.051Z,101.16
2018-12-14T06:54:54.635Z,99.92
2018-12-14T06:57:58.103Z,100.56
2018-12-14T07:01:01.704Z,101.44
2018-12-14T07:04:05.436Z,101.40
2018-12-14T07:07:09.428Z,101.81
2018-12-14T07:10:13.129Z,102.43
2018-12-14T07:13:21.868Z,102.76
2018-12-14T07:16:22.290Z,103.02
2018-12-14T07:19:25.839Z,103.27
2018-12-14T07:22:29.430Z,103.07
2018-12-14T07:25:32.954Z,103.00
2018-12-14T07:28:36.480Z,103.12
2018-12-14T07:31:40.639Z,103.40
2018-12-14T07:34:44.245Z,103.66
2018-12-14T07:37:47.767Z,103.68
2018-12-14T07:40:51.320Z,103.84
2018-12-14T07:43:54.850Z,104.18
2018-12-14T07:46:58.293Z,104.21
2018-12-14T07:50:01.793Z,104.85
2018-12-14T07:53:09.113Z,105.06
2018-12-14T07:56:10.890Z,105.04
2018-12-14T07:59:14.729Z,105.08
2018-12-14T08:02:18.396Z,105.11
2018-12-14T08:05:21.914Z,105.51
2018-12-14T08:08:25.419Z,105.45
2018-12-14T08:11:29.033Z,105.40
2018-12-14T08:14:32.556Z,105.31
2018-12-14T08:17:36.032Z,104.77
2018-12-14T08:26:13.051Z,102.83
2018-12-14T08:29:16.796Z,102.77
2018-12-14T08:32:20.356Z,102.62
2018-12-14T08:35:23.814Z,101.92
2018-12-14T08:38:27.699Z,101.49
2018-12-14T08:41:31.343Z,100.93
2018-12-14T08:44:34.832Z,100.14
2018-12-14T08:47:38.394Z,100.05
2018-12-14T08:50:42.130Z,99.76
2018-12-14T08:53:45.836Z,99.20
2018-12-14T08:56:49.359Z,99.53
2018-12-14T08:59:52.968Z,99.67
2018-12-14T09:02:56.544Z,97.15
2018-12-14T09:05:59.967Z,96.79
2018-12-14T09:09:04.689Z,96.02
2018-12-14T09:12:08.510Z,96.86
2018-12-14T09:15:12.074Z,96.51
2018-12-14T09:18:15.706Z,96.18
2018-12-14T09:21:19.359Z,96.89
2018-12-14T09:24:22.854Z,96.46
2018-12-14T09:27:26.336Z,97.21
2018-12-14T09:30:30.020Z,97.03
2018-12-14T09:33:33.474Z,96.83
2018-12-14T09:36:36.971Z,96.81
2018-12-14T09:39:41.022Z,96.45
2018-12-14T09:42:44.577Z,96.06
2018-12-14T09:45:48.115Z,95.80
2018-12-14T09:48:51.769Z,95.07
2018-12-14T09:51:55.180Z,94.83
2018-12-14T09:54:58.907Z,94.89
2018-12-14T09:58:02.494Z,94.77
2018-12-14T10:01:06.048Z,94.79
2018-12-14T10:04:10.194Z,95.27
2018-12-14T10:07:13.906Z,95.26
2018-12-14T10:10:17.412Z,93.62
2018-12-14T10:13:21.251Z,92.89
2018-12-14T10:16:24.825Z,93.22
2018-12-14T10:19:28.354Z,93.90
2018-12-14T10:22:31.924Z,94.08
2018-12-14T10:25:35.366Z,92.43
2018-12-14T10:28:39.381Z,92.79
2018-12-14T10:31:42.886Z,92.67
2018-12-14T10:34:46.433Z,93.06
2018-12-14T10:37:49.950Z,91.97
2018-12-14T10:40:53.524Z,90.51
2018-12-14T10:43:57.061Z,90.71
2018-12-14T10:47:00.778Z,91.19
2018-12-14T10:50:05.077Z,91.29
2018-12-14T10:53:13.069Z,91.21
2018-12-14T10:56:16.565Z,91.32
2018-12-14T10:59:20.046Z,91.52
2018-12-14T11:02:23.885Z,91.17
2018-12-14T11:05:27.475Z,91.10
2018-12-14T11:08:31.130Z,91.20
2018-12-14T11:11:34.701Z,90.33
2018-12-14T11:14:38.193Z,89.00
2018-12-14T11:17:41.669Z,89.71
2018-12-14T11:20:45.109Z,87.74
2018-12-14T11:23:48.833Z,88.61
2018-12-14T11:26:53.576Z,87.52
2018-12-14T11:29:57.487Z,88.77
2018-12-14T11:33:00.944Z,89.04
2018-12-14T11:36:04.455Z,89.11
2018-12-14T11:39:08.024Z,89.22
2018-12-14T11:42:11.543Z,89.25
2018-12-14T11:45:15.071Z,89.20
2018-12-14T11:48:18.613Z,89.99
2018-12-14T11:51:25.118Z,90.28
2018-12-14T11:54:28.582Z,91.35
2018-12-14T11:57:32.079Z,92.19
2018-12-14T12:00:35.595Z,91.60
2018-12-14T12:03:42.796Z,91.14
2018-12-14T12:06:44.635Z,90.42
2018-12-14T12:09:49.992Z,89.24
2018-12-14T12:12:53.505Z,89.54
2018-12-14T12:15:57.122Z,88.62
2018-12-14T12:19:00.660Z,87.96
2018-12-14T12:22:04.256Z,88.30
2018-12-14T12:25:07.839Z,87.88
2018-12-14T12:28:11.359Z,86.46
2018-12-14T12:31:14.908Z,87.31
2018-12-14T12:34:18.533Z,86.62
2018-12-14T12:37:22.068Z,85.01
2018-12-14T12:40:25.594Z,85.35
2018-12-14T12:43:29.139Z,85.74
2018-12-14T12:46:32.578Z,85.75
2018-12-14T12:49:36.126Z,85.46
2018-12-14T12:52:39.639Z,86.27
2018-12-14T12:55:43.109Z,84.95
2018-12-14T12:58:46.629Z,85.05
2018-12-14T13:01:50.268Z,85.99
2018-12-14T13:04:54.024Z,86.31
2018-12-14T13:07:57.518Z,86.21
2018-12-14T13:11:01.004Z,87.02
2018-12-14T13:14:04.594Z,87.46
2018-12-14T13:17:08.114Z,87.62
2018-12-14T13:20:11.659Z,88.39
2018-12-14T13:23:15.143Z,88.08
2018-12-14T13:26:18.769Z,87.31
2018-12-14T13:29:22.328Z,87.72
2018-12-14T13:32:25.834Z,88.17
2018-12-14T13:35:29.407Z,87.43
2018-12-14T13:38:32.900Z,87.07
2018-12-14T13:41:36.565Z,86.94
2018-12-14T13:44:46.488Z,86.82
2018-12-14T13:47:47.841Z,87.65
2018-12-14T13:50:51.481Z,87.11
2018-12-14T13:53:55.012Z,87.24
2018-12-14T13:56:58.503Z,87.27
2018-12-14T14:00:02.081Z,86.62
2018-12-14T14:03:05.689Z,86.15
2018-12-14T14:06:09.221Z,86.57
2018-12-14T14:09:12.753Z,87.23
2018-12-14T14:12:16.296Z,87.61
2018-12-14T14:15:21.029Z,87.30
2018-12-14T14:18:24.797Z,86.16
2018-12-14T14:21:29.234Z,87.61
2018-12-14T14:24:32.937Z,88.24
2018-12-14T14:27:36.777Z,88.29
2018-12-14T14:30:42.008Z,86.77
2018-12-14T14:33:45.534Z,88.14
2018-12-14T14:36:49.101Z,88.07
2018-12-14T14:39:52.677Z,87.94
2018-12-14T14:42:56.216Z,89.32
2018-12-14T14:46:00.303Z,87.75
2018-12-14T14:49:03.794Z,88.59
2018-12-14T14:52:07.496Z,88.72
2018-12-14T14:55:11.001Z,88.20
2018-12-14T14:58:14.527Z,89.29
2018-12-14T15:01:18.388Z,89.78
2018-12-14T15:04:21.935Z,89.42
2018-12-14T15:07:25.693Z,89.43
2018-12-14T15:10:29.352Z,89.85
2018-12-14T15:13:32.921Z,90.94
2018-12-14T15:16:36.473Z,90.15
2018-12-14T15:19:39.996Z,90.17
2018-12-14T15:22:43.474Z,90.39
2018-12-14T15:25:47.027Z,90.54
2018-12-14T15:28:50.632Z,90.45
2018-12-14T15:31:54.431Z,91.36
2018-12-14T15:34:59.263Z,91.86
2018-12-14T15:38:02.999Z,92.88
2018-12-14T15:41:06.784Z,93.38
2018-12-14T15:44:11.269Z,93.75
2018-12-14T15:47:14.864Z,94.32
2018-12-14T15:50:18.403Z,94.54
2018-12-14T15:53:22.122Z,94.86
2018-12-14T15:56:25.648Z,94.42
2018-12-14T15:59:29.209Z,95.09
2018-12-14T16:02:32.797Z,95.30
2018-12-14T16:05:36.466Z,96.96
2018-12-14T16:08:40.003Z,96.51
2018-12-14T16:11:43.574Z,97.28
2018-12-14T16:14:47.428Z,97.64
2018-12-14T16:17:50.944Z,98.21
2018-12-14T16:20:54.489Z,98.56
2018-12-14T16:23:58.095Z,98.64
2018-12-14T16:27:01.648Z,97.85
2018-12-14T16:30:06.042Z,97.18
2018-12-14T16:33:09.708Z,97.31
2018-12-14T16:36:13.219Z,97.05
2018-12-14T16:39:16.772Z,96.47
2018-12-14T16:42:20.280Z,96.26
2018-12-14T16:45:26.619Z,95.86
2018-12-14T16:48:29.368Z,95.44
2018-12-14T16:51:32.921Z,94.74
2018-12-14T16:54:36.698Z,94.21
2018-12-14T16:57:40.241Z,94.16
2018-12-14T17:00:43.784Z,94.80
2018-12-14T17:03:47.447Z,94.98
2018-12-14T17:06:51.077Z,94.84
2018-12-14T17:09:54.631Z,94.97
2018-12-14T17:12:58.149Z,95.06
2018-12-14T17:16:01.824Z,94.63
2018-12-14T17:19:05.569Z,94.61
2018-12-14T17:22:09.119Z,94.65
2018-12-14T17:25:12.857Z,94.69
2018-12-14T17:28:16.433Z,94.77
2018-12-14T17:31:19.963Z,94.48
2018-12-14T17:34:23.420Z,94.31
2018-12-14T17:37:26.983Z,94.44
2018-12-14T17:40:30.591Z,94.14
2018-12-14T17:43:34.342Z,93.98
2018-12-14T17:46:38.240Z,93.56
2018-12-14T17:49:42.570Z,93.56
2018-12-14T17:52:46.205Z,93.48
2018-12-14T17:55:49.729Z,93.82
2018-12-14T17:58:53.398Z,93.83
2018-12-14T18:01:57.045Z,94.27
2018-12-14T18:05:00.826Z,94.28
2018-12-14T18:08:04.320Z,93.99
2018-12-14T18:11:08.019Z,94.01
2018-12-14T18:14:11.644Z,93.33
2018-12-14T18:17:15.389Z,93.06
2018-12-14T18:20:18.909Z,93.57
2018-12-14T18:23:22.506Z,93.03
2018-12-14T18:26:25.968Z,93.24
2018-12-14T18:29:29.488Z,93.16
2018-12-14T18:32:33.028Z,93.38
2018-12-14T18:35:36.543Z,93.55
2018-12-14T18:38:40.042Z,93.93
2018-12-14T18:41:43.608Z,93.45
2018-12-14T18:44:47.158Z,93.41
2018-12-14T18:47:50.742Z,93.95
2018-12-14T18:50:54.303Z,93.77
2018-12-14T18:53:59.963Z,94.13
2018-12-14T18:57:03.534Z,94.15
2018-12-14T19:00:09.018Z,94.49
2018-12-14T19:03:12.663Z,94.16
2018-12-14T19:06:16.252Z,93.68
2018-12-14T19:09:19.822Z,93.78
2018-12-14T19:12:30.098Z,93.72
2018-12-14T19:15:33.600Z,93.64
2018-12-14T19:18:37.369Z,94.01
2018-12-14T19:21:41.108Z,94.71
2018-12-14T19:24:44.579Z,94.63
2018-12-14T19:27:48.698Z,95.11
2018-12-14T19:30:52.123Z,95.30
2018-12-14T19:33:55.666Z,94.86
2018-12-14T19:36:59.285Z,94.50
2018-12-14T19:40:02.981Z,94.36
2018-12-14T19:43:06.567Z,94.27
2018-12-14T19:46:10.162Z,95.04
2018-12-14T19:49:13.738Z,95.14
2018-12-14T19:52:17.473Z,94.39
2018-12-14T19:55:21.072Z,95.02
2018-12-14T19:58:24.729Z,94.89
2018-12-14T20:01:28.432Z,94.92
2018-12-14T20:04:32.063Z,94.10
2018-12-14T20:07:35.743Z,94.15
2018-12-14T20:10:39.488Z,94.33
2018-12-14T20:13:43.007Z,94.34
2018-12-14T20:16:46.654Z,93.53
2018-12-14T20:19:50.228Z,93.67
2018-12-14T20:22:53.734Z,94.15
2018-12-14T20:25:57.243Z,93.74
2018-12-14T20:29:00.755Z,94.09
2018-12-14T20:32:04.314Z,94.46
2018-12-14T20:35:08.340Z,94.35
2018-12-14T20:38:12.413Z,94.12
2018-12-14T20:41:15.985Z,94.16
2018-12-14T20:44:19.662Z,94.02
2018-12-14T20:47:23.191Z,93.72
2018-12-14T20:50:26.758Z,94.33
2018-12-14T20:53:30.402Z,94.98
2018-12-14T20:56:33.930Z,95.06
2018-12-14T20:59:37.518Z,94.83
2018-12-14T21:02:41.093Z,94.67
2018-12-14T21:05:44.602Z,94.80
2018-12-14T21:08:48.194Z,94.56
2018-12-14T21:11:51.773Z,94.54
2018-12-14T21:14:55.349Z,95.02
2018-12-14T21:17:58.897Z,94.77
2018-12-14T21:21:02.593Z,95.12
2018-12-14T21:24:06.191Z,95.10
2018-12-14T21:27:09.644Z,94.64
2018-12-14T21:30:13.566Z,94.64
2018-12-14T21:33:17.128Z,95.02
2018-12-14T21:36:23.642Z,94.96
2018-12-14T21:39:27.283Z,95.02
2018-12-14T21:42:30.974Z,94.76
2018-12-14T21:45:34.562Z,94.67
2018-12-14T21:48:38.239Z,95.06
2018-12-14T21:57:27.264Z,95.25
2018-12-14T22:00:30.796Z,95.13
2018-12-14T22:03:34.339Z,95.02
2018-12-14T22:06:37.797Z,94.54
2018-12-14T22:09:41.340Z,95.18
2018-12-14T22:12:44.995Z,95.09
2018-12-14T22:15:48.522Z,94.91
2018-12-14T22:18:51.972Z,94.90
2018-12-14T22:21:55.548Z,94.80
2018-12-14T22:24:59.196Z,94.77
2018-12-14T22:28:02.888Z,95.33
2018-12-14T22:31:06.737Z,95.50
2018-12-14T22:34:10.207Z,95.53
2018-12-14T22:37:14.182Z,96.26
2018-12-14T22:40:18.503Z,95.99
2018-12-14T22:43:22.118Z,95.50
2018-12-14T22:46:25.712Z,95.59
2018-12-14T22:49:29.161Z,96.15
2018-12-14T22:52:32.668Z,96.06
2018-12-14T22:55:36.278Z,96.26
2018-12-14T22:58:39.963Z,96.56
2018-12-14T23:01:43.837Z,96.46
2018-12-14T23:04:47.323Z,96.22
2018-12-14T23:07:50.856Z,96.89
2018-12-14T23:10:54.513Z,96.73
2018-12-14T23:13:58.038Z,96.75
2018-12-14T23:17:01.771Z,97.40
2018-12-14T23:20:05.748Z,96.98
2018-12-14T23:23:09.262Z,97.05
2018-12-14T23:26:12.854Z,96.98
2018-12-14T23:29:16.423Z,97.07
2018-12-14T23:32:19.966Z,97.05
2018-12-14T23:35:23.542Z,96.98
2018-12-14T23:38:27.132Z,97.14
2018-12-14T23:41:30.775Z,96.70
2018-12-14T23:44:34.481Z,96.60
2018-12-14T23:47:38.174Z,96.73
2018-12-14T23:56:15.434Z,97.09
2018-12-14T23:59:18.921Z,97.37
